sensor_id;sensor_type;location;lat;lon;timestamp;temperature;humidity
15707;DHT22;7953;54.302;10.128;2022-08-01T00:02:19;18.60;99.90
15707;DHT22;7953;54.302;10.128;2022-08-01T00:04:46;18.60;99.90
15707;DHT22;7953;54.302;10.128;2022-08-01T00:07:14;18.60;99.90
15707;DHT22;7953;54.302;10.128;2022-08-01T00:09:41;18.60;99.90
15707;DHT22;7953;54.302;10.128;2022-08-01T00:12:08;18.60;99.90
15707;DHT22;7953;54.302;10.128;2022-08-01T00:14:35;18.60;99.90
15707;DHT22;7953;54.302;10.128;2022-08-01T00:17:02;18.60;99.90
15707;DHT22;7953;54.302;10.128;2022-08-01T00:19:29;18.60;99.90
15707;DHT22;7953;54.302;10.128;2022-08-01T00:21:56;18.60;99.90
15707;DHT22;7953;54.302;10.128;2022-08-01T00:24:24;18.70;99.90
15707;DHT22;7953;54.302;10.128;2022-08-01T00:26:51;18.60;99.90
15707;DHT22;7953;54.302;10.128;2022-08-01T00:29:18;18.70;99.90
15707;DHT22;7953;54.302;10.128;2022-08-01T00:31:45;18.60;99.90
15707;DHT22;7953;54.302;10.128;2022-08-01T00:34:12;18.60;99.90
15707;DHT22;7953;54.302;10.128;2022-08-01T00:36:40;18.60;99.90
15707;DHT22;7953;54.302;10.128;2022-08-01T00:39:07;18.60;99.90
15707;DHT22;7953;54.302;10.128;2022-08-01T00:41:35;18.50;99.90
15707;DHT22;7953;54.302;10.128;2022-08-01T00:44:03;18.60;99.90
15707;DHT22;7953;54.302;10.128;2022-08-01T00:46:31;18.50;99.90
15707;DHT22;7953;54.302;10.128;2022-08-01T00:48:58;18.60;99.90
15707;DHT22;7953;54.302;10.128;2022-08-01T00:51:25;18.60;99.90
15707;DHT22;7953;54.302;10.128;2022-08-01T00:53:53;18.50;99.90
15707;DHT22;7953;54.302;10.128;2022-08-01T00:56:20;18.50;99.90
15707;DHT22;7953;54.302;10.128;2022-08-01T00:58:49;18.50;99.90
15707;DHT22;7953;54.302;10.128;2022-08-01T01:01:17;18.50;99.90
15707;DHT22;7953;54.302;10.128;2022-08-01T01:03:46;18.50;99.90
15707;DHT22;7953;54.302;10.128;2022-08-01T01:06:25;18.60;99.90
15707;DHT22;7953;54.302;10.128;2022-08-01T01:09:01;18.60;99.90
15707;DHT22;7953;54.302;10.128;2022-08-01T01:11:36;18.50;99.90
15707;DHT22;7953;54.302;10.128;2022-08-01T01:14:10;18.60;99.90
15707;DHT22;7953;54.302;10.128;2022-08-01T01:16:40;18.50;99.90
15707;DHT22;7953;54.302;10.128;2022-08-01T01:19:13;18.50;99.90
15707;DHT22;7953;54.302;10.128;2022-08-01T01:22:08;18.50;99.90
15707;DHT22;7953;54.302;10.128;2022-08-01T01:24:43;18.50;99.90
15707;DHT22;7953;54.302;10.128;2022-08-01T01:27:18;18.50;99.90
15707;DHT22;7953;54.302;10.128;2022-08-01T01:29:51;18.50;99.90
15707;DHT22;7953;54.302;10.128;2022-08-01T01:32:24;18.50;99.90
15707;DHT22;7953;54.302;10.128;2022-08-01T01:34:54;18.50;99.90
15707;DHT22;7953;54.302;10.128;2022-08-01T01:37:25;18.50;99.90
15707;DHT22;7953;54.302;10.128;2022-08-01T01:39:54;18.40;99.90
15707;DHT22;7953;54.302;10.128;2022-08-01T01:42:23;18.40;99.90
15707;DHT22;7953;54.302;10.128;2022-08-01T01:44:54;18.50;99.90
15707;DHT22;7953;54.302;10.128;2022-08-01T01:47:22;18.50;99.90
15707;DHT22;7953;54.302;10.128;2022-08-01T01:49:49;18.50;99.90
15707;DHT22;7953;54.302;10.128;2022-08-01T01:52:18;18.50;99.90
15707;DHT22;7953;54.302;10.128;2022-08-01T01:54:48;18.50;99.90
15707;DHT22;7953;54.302;10.128;2022-08-01T01:57:16;18.50;99.90
15707;DHT22;7953;54.302;10.128;2022-08-01T01:59:44;18.40;99.90
15707;DHT22;7953;54.302;10.128;2022-08-01T02:02:15;18.50;99.90
15707;DHT22;7953;54.302;10.128;2022-08-01T02:04:44;18.40;99.90
15707;DHT22;7953;54.302;10.128;2022-08-01T02:07:14;18.40;99.90
15707;DHT22;7953;54.302;10.128;2022-08-01T02:09:43;18.40;99.90
15707;DHT22;7953;54.302;10.128;2022-08-01T02:12:12;18.40;99.90
15707;DHT22;7953;54.302;10.128;2022-08-01T02:14:41;18.40;99.90
15707;DHT22;7953;54.302;10.128;2022-08-01T02:17:15;18.40;99.90
15707;DHT22;7953;54.302;10.128;2022-08-01T02:19:44;18.40;99.90
15707;DHT22;7953;54.302;10.128;2022-08-01T02:22:15;18.40;99.90
15707;DHT22;7953;54.302;10.128;2022-08-01T02:24:46;18.40;99.90
15707;DHT22;7953;54.302;10.128;2022-08-01T02:27:20;18.40;99.90
15707;DHT22;7953;54.302;10.128;2022-08-01T02:29:53;18.30;99.90
15707;DHT22;7953;54.302;10.128;2022-08-01T02:32:26;18.40;99.90
15707;DHT22;7953;54.302;10.128;2022-08-01T02:34:57;18.40;99.90
15707;DHT22;7953;54.302;10.128;2022-08-01T02:37:26;18.30;99.90
15707;DHT22;7953;54.302;10.128;2022-08-01T02:39:56;18.30;99.90
15707;DHT22;7953;54.302;10.128;2022-08-01T02:42:24;18.40;99.90
15707;DHT22;7953;54.302;10.128;2022-08-01T02:44:53;18.30;99.90
15707;DHT22;7953;54.302;10.128;2022-08-01T02:47:22;18.30;99.90
15707;DHT22;7953;54.302;10.128;2022-08-01T02:49:52;18.30;99.90
15707;DHT22;7953;54.302;10.128;2022-08-01T02:52:23;18.30;99.90
15707;DHT22;7953;54.302;10.128;2022-08-01T02:54:54;18.30;99.90
15707;DHT22;7953;54.302;10.128;2022-08-01T02:57:22;18.30;99.90
15707;DHT22;7953;54.302;10.128;2022-08-01T02:59:49;18.30;99.90
15707;DHT22;7953;54.302;10.128;2022-08-01T03:02:17;18.30;99.90
15707;DHT22;7953;54.302;10.128;2022-08-01T03:04:47;18.20;99.90
15707;DHT22;7953;54.302;10.128;2022-08-01T03:07:17;18.30;99.90
15707;DHT22;7953;54.302;10.128;2022-08-01T03:09:47;18.30;99.90
15707;DHT22;7953;54.302;10.128;2022-08-01T03:12:17;18.20;99.90
15707;DHT22;7953;54.302;10.128;2022-08-01T03:14:47;18.20;99.90
15707;DHT22;7953;54.302;10.128;2022-08-01T03:17:15;18.20;99.90
15707;DHT22;7953;54.302;10.128;2022-08-01T03:19:45;18.20;99.90
15707;DHT22;7953;54.302;10.128;2022-08-01T03:22:13;18.20;99.90
15707;DHT22;7953;54.302;10.128;2022-08-01T03:24:42;18.30;99.90
15707;DHT22;7953;54.302;10.128;2022-08-01T03:27:13;18.20;99.90
15707;DHT22;7953;54.302;10.128;2022-08-01T03:29:41;18.20;99.90
15707;DHT22;7953;54.302;10.128;2022-08-01T03:32:10;18.20;99.90
15707;DHT22;7953;54.302;10.128;2022-08-01T03:34:38;18.20;99.90
15707;DHT22;7953;54.302;10.128;2022-08-01T03:37:08;18.20;99.90
15707;DHT22;7953;54.302;10.128;2022-08-01T03:39:42;18.20;99.90
15707;DHT22;7953;54.302;10.128;2022-08-01T03:42:17;18.10;99.90
15707;DHT22;7953;54.302;10.128;2022-08-01T03:44:47;18.20;99.90
15707;DHT22;7953;54.302;10.128;2022-08-01T03:47:16;18.10;99.90
15707;DHT22;7953;54.302;10.128;2022-08-01T03:49:44;18.10;99.90
15707;DHT22;7953;54.302;10.128;2022-08-01T03:52:13;18.10;99.90
15707;DHT22;7953;54.302;10.128;2022-08-01T03:54:43;18.10;99.90
15707;DHT22;7953;54.302;10.128;2022-08-01T03:57:14;18.10;99.90
15707;DHT22;7953;54.302;10.128;2022-08-01T03:59:42;18.10;99.90
15707;DHT22;7953;54.302;10.128;2022-08-01T04:02:10;18.10;99.90
15707;DHT22;7953;54.302;10.128;2022-08-01T04:04:41;18.10;99.90
15707;DHT22;7953;54.302;10.128;2022-08-01T04:07:21;18.10;99.90
15707;DHT22;7953;54.302;10.128;2022-08-01T04:09:49;18.10;99.90
15707;DHT22;7953;54.302;10.128;2022-08-01T04:12:17;18.10;99.90
15707;DHT22;7953;54.302;10.128;2022-08-01T04:14:45;18.10;99.90
15707;DHT22;7953;54.302;10.128;2022-08-01T04:17:12;18.10;99.90
15707;DHT22;7953;54.302;10.128;2022-08-01T04:19:39;18.00;99.90
15707;DHT22;7953;54.302;10.128;2022-08-01T04:22:05;18.00;99.90
15707;DHT22;7953;54.302;10.128;2022-08-01T04:24:34;18.00;99.90
15707;DHT22;7953;54.302;10.128;2022-08-01T04:27:02;18.00;99.90
15707;DHT22;7953;54.302;10.128;2022-08-01T04:29:32;18.10;99.90
15707;DHT22;7953;54.302;10.128;2022-08-01T04:32:01;18.00;99.90
15707;DHT22;7953;54.302;10.128;2022-08-01T04:34:32;18.00;99.90
15707;DHT22;7953;54.302;10.128;2022-08-01T04:37:00;18.00;99.90
15707;DHT22;7953;54.302;10.128;2022-08-01T04:39:31;18.10;99.90
15707;DHT22;7953;54.302;10.128;2022-08-01T04:41:59;18.10;99.90
15707;DHT22;7953;54.302;10.128;2022-08-01T04:44:29;18.10;99.90
15707;DHT22;7953;54.302;10.128;2022-08-01T04:46:59;18.00;99.90
15707;DHT22;7953;54.302;10.128;2022-08-01T04:49:29;18.10;99.90
15707;DHT22;7953;54.302;10.128;2022-08-01T04:51:57;18.10;99.90
15707;DHT22;7953;54.302;10.128;2022-08-01T04:54:26;18.10;99.90
15707;DHT22;7953;54.302;10.128;2022-08-01T04:56:53;18.10;99.90
15707;DHT22;7953;54.302;10.128;2022-08-01T04:59:21;18.10;99.90
15707;DHT22;7953;54.302;10.128;2022-08-01T05:02:10;18.10;99.90
15707;DHT22;7953;54.302;10.128;2022-08-01T05:04:37;18.10;99.90
15707;DHT22;7953;54.302;10.128;2022-08-01T05:07:06;18.10;99.90
15707;DHT22;7953;54.302;10.128;2022-08-01T05:09:36;18.10;99.90
15707;DHT22;7953;54.302;10.128;2022-08-01T05:12:05;18.10;99.90
15707;DHT22;7953;54.302;10.128;2022-08-01T05:14:32;18.00;99.90
15707;DHT22;7953;54.302;10.128;2022-08-01T05:17:00;18.10;99.90
15707;DHT22;7953;54.302;10.128;2022-08-01T05:19:30;18.10;99.90
15707;DHT22;7953;54.302;10.128;2022-08-01T05:21:58;18.10;99.90
15707;DHT22;7953;54.302;10.128;2022-08-01T05:24:26;18.10;99.90
15707;DHT22;7953;54.302;10.128;2022-08-01T05:26:53;18.10;99.90
15707;DHT22;7953;54.302;10.128;2022-08-01T05:29:20;18.10;99.90
15707;DHT22;7953;54.302;10.128;2022-08-01T05:31:47;18.10;99.90
15707;DHT22;7953;54.302;10.128;2022-08-01T05:34:14;18.20;99.90
15707;DHT22;7953;54.302;10.128;2022-08-01T05:36:43;18.20;99.90
15707;DHT22;7953;54.302;10.128;2022-08-01T05:39:10;18.20;99.90
15707;DHT22;7953;54.302;10.128;2022-08-01T05:41:37;18.20;99.90
15707;DHT22;7953;54.302;10.128;2022-08-01T05:44:05;18.20;99.90
15707;DHT22;7953;54.302;10.128;2022-08-01T05:46:33;18.20;99.90
15707;DHT22;7953;54.302;10.128;2022-08-01T05:49:00;18.30;99.90
15707;DHT22;7953;54.302;10.128;2022-08-01T05:51:33;18.20;99.90
15707;DHT22;7953;54.302;10.128;2022-08-01T05:54:01;18.20;99.90
15707;DHT22;7953;54.302;10.128;2022-08-01T05:56:29;18.30;99.90
15707;DHT22;7953;54.302;10.128;2022-08-01T05:58:56;18.30;99.90
15707;DHT22;7953;54.302;10.128;2022-08-01T06:01:23;18.30;99.90
15707;DHT22;7953;54.302;10.128;2022-08-01T06:03:50;18.30;99.90
15707;DHT22;7953;54.302;10.128;2022-08-01T06:06:18;18.30;99.90
15707;DHT22;7953;54.302;10.128;2022-08-01T06:08:45;18.30;99.90
15707;DHT22;7953;54.302;10.128;2022-08-01T06:11:13;18.30;99.90
15707;DHT22;7953;54.302;10.128;2022-08-01T06:13:40;18.30;99.90
15707;DHT22;7953;54.302;10.128;2022-08-01T06:16:07;18.40;99.90
15707;DHT22;7953;54.302;10.128;2022-08-01T06:18:34;18.50;99.90
15707;DHT22;7953;54.302;10.128;2022-08-01T06:21:01;18.50;99.90
15707;DHT22;7953;54.302;10.128;2022-08-01T06:23:28;18.50;99.90
15707;DHT22;7953;54.302;10.128;2022-08-01T06:25:55;18.50;99.90
15707;DHT22;7953;54.302;10.128;2022-08-01T06:28:24;18.40;99.90
15707;DHT22;7953;54.302;10.128;2022-08-01T06:30:51;18.40;99.90
15707;DHT22;7953;54.302;10.128;2022-08-01T06:33:18;18.50;99.90
15707;DHT22;7953;54.302;10.128;2022-08-01T06:35:46;18.50;99.90
15707;DHT22;7953;54.302;10.128;2022-08-01T06:38:13;18.50;99.90
15707;DHT22;7953;54.302;10.128;2022-08-01T06:40:40;18.50;99.90
15707;DHT22;7953;54.302;10.128;2022-08-01T06:43:07;18.50;99.90
15707;DHT22;7953;54.302;10.128;2022-08-01T06:45:35;18.40;99.90
15707;DHT22;7953;54.302;10.128;2022-08-01T06:48:03;18.50;99.90
15707;DHT22;7953;54.302;10.128;2022-08-01T06:50:30;18.40;99.90
15707;DHT22;7953;54.302;10.128;2022-08-01T06:52:57;18.40;99.90
15707;DHT22;7953;54.302;10.128;2022-08-01T06:55:27;18.40;99.90
15707;DHT22;7953;54.302;10.128;2022-08-01T06:57:54;18.40;99.90
15707;DHT22;7953;54.302;10.128;2022-08-01T07:00:22;18.30;99.90
15707;DHT22;7953;54.302;10.128;2022-08-01T07:02:51;18.30;99.90
15707;DHT22;7953;54.302;10.128;2022-08-01T07:05:18;18.30;99.90
15707;DHT22;7953;54.302;10.128;2022-08-01T07:07:46;18.20;99.90
15707;DHT22;7953;54.302;10.128;2022-08-01T07:10:16;18.20;99.90
15707;DHT22;7953;54.302;10.128;2022-08-01T07:12:43;18.20;99.90
15707;DHT22;7953;54.302;10.128;2022-08-01T07:15:11;18.10;99.90
15707;DHT22;7953;54.302;10.128;2022-08-01T07:17:38;18.10;99.90
15707;DHT22;7953;54.302;10.128;2022-08-01T07:20:11;18.10;99.90
15707;DHT22;7953;54.302;10.128;2022-08-01T07:22:38;18.10;99.90
15707;DHT22;7953;54.302;10.128;2022-08-01T07:25:06;18.10;99.90
15707;DHT22;7953;54.302;10.128;2022-08-01T07:27:34;18.10;99.90
15707;DHT22;7953;54.302;10.128;2022-08-01T07:30:01;18.20;99.90
15707;DHT22;7953;54.302;10.128;2022-08-01T07:32:28;18.20;99.90
15707;DHT22;7953;54.302;10.128;2022-08-01T07:34:55;18.30;99.90
15707;DHT22;7953;54.302;10.128;2022-08-01T07:37:23;18.50;99.90
15707;DHT22;7953;54.302;10.128;2022-08-01T07:39:50;18.70;99.90
15707;DHT22;7953;54.302;10.128;2022-08-01T07:42:17;18.70;99.90
15707;DHT22;7953;54.302;10.128;2022-08-01T07:44:44;18.60;99.90
15707;DHT22;7953;54.302;10.128;2022-08-01T07:47:11;18.60;99.90
15707;DHT22;7953;54.302;10.128;2022-08-01T07:49:38;18.60;99.90
15707;DHT22;7953;54.302;10.128;2022-08-01T07:52:05;18.70;99.90
15707;DHT22;7953;54.302;10.128;2022-08-01T07:54:34;18.70;99.90
15707;DHT22;7953;54.302;10.128;2022-08-01T07:57:01;18.90;99.90
15707;DHT22;7953;54.302;10.128;2022-08-01T07:59:28;19.00;99.90
15707;DHT22;7953;54.302;10.128;2022-08-01T08:01:55;19.10;99.90
15707;DHT22;7953;54.302;10.128;2022-08-01T08:04:22;19.20;99.90
15707;DHT22;7953;54.302;10.128;2022-08-01T08:06:49;19.20;99.90
15707;DHT22;7953;54.302;10.128;2022-08-01T08:09:18;19.20;99.90
15707;DHT22;7953;54.302;10.128;2022-08-01T08:11:47;19.30;99.90
15707;DHT22;7953;54.302;10.128;2022-08-01T08:14:14;19.40;99.90
15707;DHT22;7953;54.302;10.128;2022-08-01T08:16:42;19.40;99.90
15707;DHT22;7953;54.302;10.128;2022-08-01T08:19:09;19.40;99.90
15707;DHT22;7953;54.302;10.128;2022-08-01T08:21:36;19.50;99.90
15707;DHT22;7953;54.302;10.128;2022-08-01T08:24:03;19.70;99.90
15707;DHT22;7953;54.302;10.128;2022-08-01T08:26:52;19.80;99.90
15707;DHT22;7953;54.302;10.128;2022-08-01T08:29:20;20.10;99.90
15707;DHT22;7953;54.302;10.128;2022-08-01T08:31:48;20.30;99.90
15707;DHT22;7953;54.302;10.128;2022-08-01T08:34:16;20.50;99.90
15707;DHT22;7953;54.302;10.128;2022-08-01T08:36:43;20.70;99.90
15707;DHT22;7953;54.302;10.128;2022-08-01T08:39:10;21.00;99.90
15707;DHT22;7953;54.302;10.128;2022-08-01T08:41:37;21.20;99.90
15707;DHT22;7953;54.302;10.128;2022-08-01T08:44:07;21.30;99.90
15707;DHT22;7953;54.302;10.128;2022-08-01T08:46:40;21.60;99.90
15707;DHT22;7953;54.302;10.128;2022-08-01T08:49:08;21.80;99.90
15707;DHT22;7953;54.302;10.128;2022-08-01T08:51:39;21.90;99.90
15707;DHT22;7953;54.302;10.128;2022-08-01T08:54:07;22.10;99.90
15707;DHT22;7953;54.302;10.128;2022-08-01T08:56:35;22.20;99.90
15707;DHT22;7953;54.302;10.128;2022-08-01T08:59:03;22.50;99.90
15707;DHT22;7953;54.302;10.128;2022-08-01T09:01:32;22.70;99.90
15707;DHT22;7953;54.302;10.128;2022-08-01T09:04:01;22.70;99.90
15707;DHT22;7953;54.302;10.128;2022-08-01T09:06:29;22.70;99.90
15707;DHT22;7953;54.302;10.128;2022-08-01T09:08:56;22.70;99.90
15707;DHT22;7953;54.302;10.128;2022-08-01T09:11:23;22.90;99.90
15707;DHT22;7953;54.302;10.128;2022-08-01T09:14:07;23.10;99.90
15707;DHT22;7953;54.302;10.128;2022-08-01T09:16:39;23.20;99.90
15707;DHT22;7953;54.302;10.128;2022-08-01T09:19:09;23.20;99.90
15707;DHT22;7953;54.302;10.128;2022-08-01T09:21:36;23.30;99.90
15707;DHT22;7953;54.302;10.128;2022-08-01T09:24:12;23.10;99.90
15707;DHT22;7953;54.302;10.128;2022-08-01T09:26:39;23.20;99.90
15707;DHT22;7953;54.302;10.128;2022-08-01T09:29:08;23.40;99.90
15707;DHT22;7953;54.302;10.128;2022-08-01T09:31:44;23.60;99.90
15707;DHT22;7953;54.302;10.128;2022-08-01T09:34:12;23.80;99.90
15707;DHT22;7953;54.302;10.128;2022-08-01T09:36:50;23.80;99.90
15707;DHT22;7953;54.302;10.128;2022-08-01T09:39:23;24.00;99.90
15707;DHT22;7953;54.302;10.128;2022-08-01T09:41:51;24.20;99.90
15707;DHT22;7953;54.302;10.128;2022-08-01T09:44:18;24.20;99.90
15707;DHT22;7953;54.302;10.128;2022-08-01T09:46:52;24.20;99.90
15707;DHT22;7953;54.302;10.128;2022-08-01T09:49:30;24.10;99.90
15707;DHT22;7953;54.302;10.128;2022-08-01T09:51:58;24.20;99.90
15707;DHT22;7953;54.302;10.128;2022-08-01T09:54:30;24.30;99.90
15707;DHT22;7953;54.302;10.128;2022-08-01T09:57:08;24.40;99.90
15707;DHT22;7953;54.302;10.128;2022-08-01T09:59:37;24.50;99.90
15707;DHT22;7953;54.302;10.128;2022-08-01T10:02:08;24.60;99.90
15707;DHT22;7953;54.302;10.128;2022-08-01T10:04:36;24.70;99.90
15707;DHT22;7953;54.302;10.128;2022-08-01T10:07:06;24.90;99.90
15707;DHT22;7953;54.302;10.128;2022-08-01T10:09:35;25.00;99.90
15707;DHT22;7953;54.302;10.128;2022-08-01T10:12:04;25.20;99.90
15707;DHT22;7953;54.302;10.128;2022-08-01T10:14:31;25.20;99.90
15707;DHT22;7953;54.302;10.128;2022-08-01T10:17:00;25.20;99.90
15707;DHT22;7953;54.302;10.128;2022-08-01T10:19:29;25.40;99.90
15707;DHT22;7953;54.302;10.128;2022-08-01T10:21:58;25.50;99.90
15707;DHT22;7953;54.302;10.128;2022-08-01T10:24:27;25.10;99.90
15707;DHT22;7953;54.302;10.128;2022-08-01T10:26:57;25.00;99.90
15707;DHT22;7953;54.302;10.128;2022-08-01T10:29:31;25.20;99.90
15707;DHT22;7953;54.302;10.128;2022-08-01T10:31:59;25.40;99.90
15707;DHT22;7953;54.302;10.128;2022-08-01T10:34:29;25.50;99.90
15707;DHT22;7953;54.302;10.128;2022-08-01T10:36:56;25.50;99.90
15707;DHT22;7953;54.302;10.128;2022-08-01T10:39:23;25.40;99.90
15707;DHT22;7953;54.302;10.128;2022-08-01T10:41:52;25.60;99.90
15707;DHT22;7953;54.302;10.128;2022-08-01T10:44:19;25.40;99.90
15707;DHT22;7953;54.302;10.128;2022-08-01T10:46:49;25.10;99.90
15707;DHT22;7953;54.302;10.128;2022-08-01T10:49:20;25.00;99.90
15707;DHT22;7953;54.302;10.128;2022-08-01T10:51:49;24.90;99.90
15707;DHT22;7953;54.302;10.128;2022-08-01T10:54:16;24.80;99.90
15707;DHT22;7953;54.302;10.128;2022-08-01T10:56:45;24.80;99.90
15707;DHT22;7953;54.302;10.128;2022-08-01T10:59:15;24.70;99.90
15707;DHT22;7953;54.302;10.128;2022-08-01T11:01:56;24.50;99.90
15707;DHT22;7953;54.302;10.128;2022-08-01T11:04:33;24.60;99.90
15707;DHT22;7953;54.302;10.128;2022-08-01T11:07:06;24.50;99.90
15707;DHT22;7953;54.302;10.128;2022-08-01T11:09:41;24.70;99.90
15707;DHT22;7953;54.302;10.128;2022-08-01T11:12:10;24.90;99.90
15707;DHT22;7953;54.302;10.128;2022-08-01T11:17:43;24.80;99.90
15707;DHT22;7953;54.302;10.128;2022-08-01T11:20:14;24.70;99.90
15707;DHT22;7953;54.302;10.128;2022-08-01T11:26:11;24.50;99.90
15707;DHT22;7953;54.302;10.128;2022-08-01T11:28:38;24.40;99.90
15707;DHT22;7953;54.302;10.128;2022-08-01T11:31:25;24.40;99.90
15707;DHT22;7953;54.302;10.128;2022-08-01T11:33:52;24.50;99.90
15707;DHT22;7953;54.302;10.128;2022-08-01T11:36:19;24.60;99.90
15707;DHT22;7953;54.302;10.128;2022-08-01T11:38:48;24.70;99.90
15707;DHT22;7953;54.302;10.128;2022-08-01T11:41:21;24.70;99.90
15707;DHT22;7953;54.302;10.128;2022-08-01T11:43:55;24.80;99.90
15707;DHT22;7953;54.302;10.128;2022-08-01T11:49:43;24.90;99.90
15707;DHT22;7953;54.302;10.128;2022-08-01T11:52:12;24.90;99.90
15707;DHT22;7953;54.302;10.128;2022-08-01T11:54:41;24.90;99.90
15707;DHT22;7953;54.302;10.128;2022-08-01T11:57:11;24.80;99.90
15707;DHT22;7953;54.302;10.128;2022-08-01T11:59:40;24.60;99.90
15707;DHT22;7953;54.302;10.128;2022-08-01T12:02:20;24.60;99.90
15707;DHT22;7953;54.302;10.128;2022-08-01T12:04:49;24.60;99.90
15707;DHT22;7953;54.302;10.128;2022-08-01T12:07:17;24.40;99.90
15707;DHT22;7953;54.302;10.128;2022-08-01T12:09:44;24.30;99.90
15707;DHT22;7953;54.302;10.128;2022-08-01T12:12:16;24.20;99.90
15707;DHT22;7953;54.302;10.128;2022-08-01T12:14:45;24.20;99.90
15707;DHT22;7953;54.302;10.128;2022-08-01T12:17:12;24.10;99.90
15707;DHT22;7953;54.302;10.128;2022-08-01T12:19:40;24.10;99.90
15707;DHT22;7953;54.302;10.128;2022-08-01T12:22:13;24.00;99.90
15707;DHT22;7953;54.302;10.128;2022-08-01T12:24:42;24.00;99.90
15707;DHT22;7953;54.302;10.128;2022-08-01T12:27:10;23.90;99.90
15707;DHT22;7953;54.302;10.128;2022-08-01T12:29:41;24.00;99.90
15707;DHT22;7953;54.302;10.128;2022-08-01T12:32:27;24.00;99.90
15707;DHT22;7953;54.302;10.128;2022-08-01T12:34:58;24.10;99.90
15707;DHT22;7953;54.302;10.128;2022-08-01T12:37:27;24.00;99.90
15707;DHT22;7953;54.302;10.128;2022-08-01T12:39:54;24.00;99.90
15707;DHT22;7953;54.302;10.128;2022-08-01T12:42:24;24.10;99.90
15707;DHT22;7953;54.302;10.128;2022-08-01T12:44:53;24.00;99.90
15707;DHT22;7953;54.302;10.128;2022-08-01T12:47:21;24.00;99.90
15707;DHT22;7953;54.302;10.128;2022-08-01T12:49:49;24.00;99.90
15707;DHT22;7953;54.302;10.128;2022-08-01T12:52:16;24.00;99.90
15707;DHT22;7953;54.302;10.128;2022-08-01T12:55:04;24.10;99.90
15707;DHT22;7953;54.302;10.128;2022-08-01T12:57:32;24.20;99.90
15707;DHT22;7953;54.302;10.128;2022-08-01T13:00:15;24.30;99.90
15707;DHT22;7953;54.302;10.128;2022-08-01T13:02:44;24.30;99.90
15707;DHT22;7953;54.302;10.128;2022-08-01T13:05:13;24.30;99.90
15707;DHT22;7953;54.302;10.128;2022-08-01T13:07:44;24.30;99.90
15707;DHT22;7953;54.302;10.128;2022-08-01T13:10:12;24.30;99.90
15707;DHT22;7953;54.302;10.128;2022-08-01T13:12:40;24.30;99.90
15707;DHT22;7953;54.302;10.128;2022-08-01T13:15:26;24.20;99.90
15707;DHT22;7953;54.302;10.128;2022-08-01T13:17:57;24.20;99.90
15707;DHT22;7953;54.302;10.128;2022-08-01T13:20:26;24.20;99.90
15707;DHT22;7953;54.302;10.128;2022-08-01T13:22:53;24.20;99.90
15707;DHT22;7953;54.302;10.128;2022-08-01T13:25:20;24.10;99.90
15707;DHT22;7953;54.302;10.128;2022-08-01T13:27:47;24.10;99.90
15707;DHT22;7953;54.302;10.128;2022-08-01T13:30:16;24.20;99.90
15707;DHT22;7953;54.302;10.128;2022-08-01T13:32:57;24.20;99.90
15707;DHT22;7953;54.302;10.128;2022-08-01T13:35:24;24.10;99.90
15707;DHT22;7953;54.302;10.128;2022-08-01T13:37:51;24.10;99.90
15707;DHT22;7953;54.302;10.128;2022-08-01T13:40:24;24.20;99.90
15707;DHT22;7953;54.302;10.128;2022-08-01T13:42:51;24.10;99.90
15707;DHT22;7953;54.302;10.128;2022-08-01T13:45:19;24.10;99.90
15707;DHT22;7953;54.302;10.128;2022-08-01T13:47:47;23.90;99.90
15707;DHT22;7953;54.302;10.128;2022-08-01T13:50:14;23.90;99.90
15707;DHT22;7953;54.302;10.128;2022-08-01T13:52:41;23.90;99.90
15707;DHT22;7953;54.302;10.128;2022-08-01T13:55:08;23.90;99.90
15707;DHT22;7953;54.302;10.128;2022-08-01T13:57:35;24.00;99.90
15707;DHT22;7953;54.302;10.128;2022-08-01T14:00:03;24.10;99.90
15707;DHT22;7953;54.302;10.128;2022-08-01T14:02:31;24.10;99.90
15707;DHT22;7953;54.302;10.128;2022-08-01T14:04:59;24.10;99.90
15707;DHT22;7953;54.302;10.128;2022-08-01T14:07:26;24.10;99.90
15707;DHT22;7953;54.302;10.128;2022-08-01T14:09:54;24.10;99.90
15707;DHT22;7953;54.302;10.128;2022-08-01T14:12:21;24.10;99.90
15707;DHT22;7953;54.302;10.128;2022-08-01T14:14:47;24.00;99.90
15707;DHT22;7953;54.302;10.128;2022-08-01T14:17:14;24.10;99.90
15707;DHT22;7953;54.302;10.128;2022-08-01T14:19:41;24.10;99.90
15707;DHT22;7953;54.302;10.128;2022-08-01T14:22:09;24.10;99.90
15707;DHT22;7953;54.302;10.128;2022-08-01T14:24:36;24.00;99.90
15707;DHT22;7953;54.302;10.128;2022-08-01T14:27:03;24.00;99.90
15707;DHT22;7953;54.302;10.128;2022-08-01T14:29:30;23.90;99.90
15707;DHT22;7953;54.302;10.128;2022-08-01T14:31:57;23.90;99.90
15707;DHT22;7953;54.302;10.128;2022-08-01T14:34:24;23.70;99.90
15707;DHT22;7953;54.302;10.128;2022-08-01T14:36:50;23.80;99.90
15707;DHT22;7953;54.302;10.128;2022-08-01T14:39:20;23.80;99.90
15707;DHT22;7953;54.302;10.128;2022-08-01T14:41:47;23.80;99.90
15707;DHT22;7953;54.302;10.128;2022-08-01T14:44:14;23.80;99.90
15707;DHT22;7953;54.302;10.128;2022-08-01T14:46:40;23.70;99.90
15707;DHT22;7953;54.302;10.128;2022-08-01T14:49:09;23.70;99.90
15707;DHT22;7953;54.302;10.128;2022-08-01T14:51:36;23.70;99.90
15707;DHT22;7953;54.302;10.128;2022-08-01T14:54:04;23.70;99.90
15707;DHT22;7953;54.302;10.128;2022-08-01T14:56:32;23.70;99.90
15707;DHT22;7953;54.302;10.128;2022-08-01T14:58:59;23.70;99.90
15707;DHT22;7953;54.302;10.128;2022-08-01T15:01:26;23.70;99.90
15707;DHT22;7953;54.302;10.128;2022-08-01T15:03:53;23.70;99.90
15707;DHT22;7953;54.302;10.128;2022-08-01T15:06:21;23.70;99.90
15707;DHT22;7953;54.302;10.128;2022-08-01T15:08:48;23.70;99.90
15707;DHT22;7953;54.302;10.128;2022-08-01T15:11:15;23.70;99.90
15707;DHT22;7953;54.302;10.128;2022-08-01T15:13:43;23.70;99.90
15707;DHT22;7953;54.302;10.128;2022-08-01T15:16:10;23.50;99.90
15707;DHT22;7953;54.302;10.128;2022-08-01T15:18:37;23.40;99.90
15707;DHT22;7953;54.302;10.128;2022-08-01T15:21:04;23.40;99.90
15707;DHT22;7953;54.302;10.128;2022-08-01T15:23:31;23.20;99.90
15707;DHT22;7953;54.302;10.128;2022-08-01T15:25:58;23.10;99.90
15707;DHT22;7953;54.302;10.128;2022-08-01T15:28:25;23.10;99.90
15707;DHT22;7953;54.302;10.128;2022-08-01T15:30:53;23.20;99.90
15707;DHT22;7953;54.302;10.128;2022-08-01T15:33:20;23.20;99.90
15707;DHT22;7953;54.302;10.128;2022-08-01T15:35:47;23.20;99.90
15707;DHT22;7953;54.302;10.128;2022-08-01T15:38:14;23.30;99.90
15707;DHT22;7953;54.302;10.128;2022-08-01T15:40:42;23.20;99.90
15707;DHT22;7953;54.302;10.128;2022-08-01T15:43:09;23.20;99.90
15707;DHT22;7953;54.302;10.128;2022-08-01T15:45:36;23.30;99.90
15707;DHT22;7953;54.302;10.128;2022-08-01T15:48:04;23.30;99.90
15707;DHT22;7953;54.302;10.128;2022-08-01T15:50:32;23.40;99.90
15707;DHT22;7953;54.302;10.128;2022-08-01T15:52:58;23.40;99.90